Mescaleros — FIOG — position and weather

sailwx.info

Track history (hours):
 
Tides and Currents Weather Stations Pressure Air Temp Water Temp Dewpoint Dewpoint Depression Visibility Wind Speed Wind Dir Waves Ship Positions

Mescaleros

Last reported at 2018-Jun-12 08:58 UTC. Time now 2018-Jun-20 21:03 UTC.
Position N 48°19' W 004°48'.
Warning: this ship's position is 8 days out of date.

Length 12 m.

Type: Fishing. MMSI: 228849000.

Date/timePositionNaut miles runAvg speedWind from/ knotsBaromVisibWave heightAir tempDewpointWater temp
2018-Jun-12 08:58N 48°19' W 004°48'7 7.1
2018-Jun-12 07:58N 48°12' W 004°48'3 2.7
2018-Jun-12 06:43N 48°08' W 004°49'2 2.1
2018-Jun-12 05:58N 48°10' W 004°48'3 3.0
2018-Jun-12 04:58N 48°07' W 004°51'1 1.3
2018-Jun-12 03:53N 48°08' W 004°49'2 2.1
2018-Jun-12 02:58N 48°10' W 004°48'5 5.1
2018-Jun-12 01:53N 48°15' W 004°46'8 0.6
2018-Jun-11 12:58N 48°23' W 004°48'7 0.2
2018-Jun-09 13:46N 48°30' W 004°52'2 7.6
2018-Jun-09 13:30N 48°32' W 004°53'8 0.2
2018-Jun-08 01:33N 48°25' W 004°49'6 0.4
2018-Jun-07 09:43N 48°19' W 004°46'7 8.3
2018-Jun-07 08:53N 48°12' W 004°47'6 6.8
2018-Jun-07 07:59N 48°07' W 004°51'1 0.8
2018-Jun-07 06:58N 48°08' W 004°50'3 2.8
2018-Jun-07 05:59N 48°10' W 004°48'3 2.7
2018-Jun-07 04:58N 48°07' W 004°50'1 1.2
2018-Jun-07 03:58N 48°09' W 004°50'5 5.2
2018-Jun-07 02:58N 48°14' W 004°48'12 0.9
2018-Jun-06 14:33N 48°25' W 004°50'5 8.4
2018-Jun-06 13:56N 48°30' W 004°52'4 0.3
2018-Jun-06 01:38N 48°26' W 004°50'1 0.1
2018-Jun-05 14:53N 48°25' W 004°49'5 8.0
2018-Jun-05 14:18N 48°30' W 004°51'2 8.0
2018-Jun-05 14:00N 48°32' W 004°52'5 0.4
2018-Jun-05 02:48N 48°28' W 004°57'7 7.8
2018-Jun-05 01:53N 48°23' W 004°49'7 0.5
2018-Jun-04 12:33N 48°16' W 004°48'4 7.3
2018-Jun-04 11:58N 48°12' W 004°48'5 4.1
2018-Jun-04 10:48N 48°08' W 004°52'0 0.4
2018-Jun-04 09:58N 48°08' W 004°51'1 0.9
2018-Jun-04 08:53N 48°08' W 004°51'0 0.2
2018-Jun-04 07:53N 48°08' W 004°50'1 0.2
2018-Jun-04 03:58N 48°08' W 004°49'2 2.2
2018-Jun-04 02:58N 48°10' W 004°49'8 7.6
2018-Jun-04 01:58N 48°18' W 004°47'9 0.2
2018-Jun-02 11:58N 48°26' W 004°50'4 8.2
2018-Jun-02 11:28N 48°30' W 004°52'  
Track history (hours):
 
Tides and Currents Weather Stations Pressure Air Temp Water Temp Dewpoint Dewpoint Depression Visibility Wind Speed Wind Dir Waves Ship Positions

Mescaleros

Last reported at 2018-Jun-12 08:58 UTC. Time now 2018-Jun-20 21:03 UTC.
Position N 48°19' W 004°48'.
Warning: this ship's position is 8 days out of date.

Length 12 m.

Type: Fishing. MMSI: 228849000.

Date/timePositionNaut miles runAvg speedWind from/ knotsBaromVisibWave heightAir tempDewpointWater temp
2018-Jun-12 08:58N 48°19' W 004°48'7 7.1
2018-Jun-12 07:58N 48°12' W 004°48'3 2.7
2018-Jun-12 06:43N 48°08' W 004°49'2 2.1
2018-Jun-12 05:58N 48°10' W 004°48'3 3.0
2018-Jun-12 04:58N 48°07' W 004°51'1 1.3
2018-Jun-12 03:53N 48°08' W 004°49'2 2.1
2018-Jun-12 02:58N 48°10' W 004°48'5 5.1
2018-Jun-12 01:53N 48°15' W 004°46'8 0.6
2018-Jun-11 12:58N 48°23' W 004°48'7 0.2
2018-Jun-09 13:46N 48°30' W 004°52'2 7.6
2018-Jun-09 13:30N 48°32' W 004°53'8 0.2
2018-Jun-08 01:33N 48°25' W 004°49'6 0.4
2018-Jun-07 09:43N 48°19' W 004°46'7 8.3
2018-Jun-07 08:53N 48°12' W 004°47'6 6.8
2018-Jun-07 07:59N 48°07' W 004°51'1 0.8
2018-Jun-07 06:58N 48°08' W 004°50'3 2.8
2018-Jun-07 05:59N 48°10' W 004°48'3 2.7
2018-Jun-07 04:58N 48°07' W 004°50'1 1.2
2018-Jun-07 03:58N 48°09' W 004°50'5 5.2
2018-Jun-07 02:58N 48°14' W 004°48'12 0.9
2018-Jun-06 14:33N 48°25' W 004°50'5 8.4
2018-Jun-06 13:56N 48°30' W 004°52'4 0.3
2018-Jun-06 01:38N 48°26' W 004°50'1 0.1
2018-Jun-05 14:53N 48°25' W 004°49'5 8.0
2018-Jun-05 14:18N 48°30' W 004°51'2 8.0
2018-Jun-05 14:00N 48°32' W 004°52'5 0.4
2018-Jun-05 02:48N 48°28' W 004°57'7 7.8
2018-Jun-05 01:53N 48°23' W 004°49'7 0.5
2018-Jun-04 12:33N 48°16' W 004°48'4 7.3
2018-Jun-04 11:58N 48°12' W 004°48'5 4.1
2018-Jun-04 10:48N 48°08' W 004°52'0 0.4
2018-Jun-04 09:58N 48°08' W 004°51'1 0.9
2018-Jun-04 08:53N 48°08' W 004°51'0 0.2
2018-Jun-04 07:53N 48°08' W 004°50'1 0.2
2018-Jun-04 03:58N 48°08' W 004°49'2 2.2
2018-Jun-04 02:58N 48°10' W 004°49'8 7.6
2018-Jun-04 01:58N 48°18' W 004°47'9 0.2
2018-Jun-02 11:58N 48°26' W 004°50'4 8.2
2018-Jun-02 11:28N 48°30' W 004°52'  

Dump ship's entire track history